Kirovskij, Russia
Current Conditions -  °F | °C
As of 3:00 PM on Tuesday 21 Oct 2014 (Local Time) from UHWW Reporting Station
Overcast Overcast  
Wind Chill: 34°   Ceiling: 20000
Heat Index: 41°   Visibility: 6mi
Dew Point:   Wind: 11mph
Humidity: 21%   Direction: 350°N
Pressure: 30.24"   Gusts: 22mph
Location:  45.09°N, 133.51°E
Report Text: UHWW 210500Z 35005G10MPS 320V020 9999 OVC200 05/M16 Q1024 NOSIGRMK QFE767/1022 57CLRD70
Loading
Personal Weather Stations






























Interactive Weather Map
Tropical Storm Tracking
New forecast layout! Learn more

10-Day Weather Forecast

Advertisements
Track Severe Weather on mobile